sensor_id;sensor_type;location;lat;lon;timestamp;temperature;humidity
20845;DHT22;10583;49.084;8.646;2024-01-30T00:00:30;0.70;99.90
20845;DHT22;10583;49.084;8.646;2024-01-30T00:02:57;0.70;99.90
20845;DHT22;10583;49.084;8.646;2024-01-30T00:05:25;0.70;99.90
20845;DHT22;10583;49.084;8.646;2024-01-30T00:07:52;0.60;99.90
20845;DHT22;10583;49.084;8.646;2024-01-30T00:10:19;0.60;99.90
20845;DHT22;10583;49.084;8.646;2024-01-30T00:12:46;0.60;99.90
20845;DHT22;10583;49.084;8.646;2024-01-30T00:15:13;0.60;99.90
20845;DHT22;10583;49.084;8.646;2024-01-30T00:17:40;0.60;99.90
20845;DHT22;10583;49.084;8.646;2024-01-30T00:20:08;0.50;99.90
20845;DHT22;10583;49.084;8.646;2024-01-30T00:22:36;0.50;99.90
20845;DHT22;10583;49.084;8.646;2024-01-30T00:25:03;0.40;99.90
20845;DHT22;10583;49.084;8.646;2024-01-30T00:27:31;0.30;99.90
20845;DHT22;10583;49.084;8.646;2024-01-30T00:29:57;0.30;99.90
20845;DHT22;10583;49.084;8.646;2024-01-30T00:32:24;0.30;99.90
20845;DHT22;10583;49.084;8.646;2024-01-30T00:34:51;0.40;99.90
20845;DHT22;10583;49.084;8.646;2024-01-30T00:37:18;0.40;99.90
20845;DHT22;10583;49.084;8.646;2024-01-30T00:39:46;0.40;99.90
20845;DHT22;10583;49.084;8.646;2024-01-30T00:42:13;0.30;99.90
20845;DHT22;10583;49.084;8.646;2024-01-30T00:44:40;0.30;99.90
20845;DHT22;10583;49.084;8.646;2024-01-30T00:47:07;0.20;99.90
20845;DHT22;10583;49.084;8.646;2024-01-30T00:49:34;0.20;99.90
20845;DHT22;10583;49.084;8.646;2024-01-30T00:52:01;0.20;99.90
20845;DHT22;10583;49.084;8.646;2024-01-30T00:54:28;0.20;99.90
20845;DHT22;10583;49.084;8.646;2024-01-30T00:56:57;0.30;99.90
20845;DHT22;10583;49.084;8.646;2024-01-30T00:59:23;0.40;99.90
20845;DHT22;10583;49.084;8.646;2024-01-30T01:01:50;0.30;99.90
20845;DHT22;10583;49.084;8.646;2024-01-30T01:04:17;0.30;99.90
20845;DHT22;10583;49.084;8.646;2024-01-30T01:06:44;0.30;99.90
20845;DHT22;10583;49.084;8.646;2024-01-30T01:09:10;0.30;99.90
20845;DHT22;10583;49.084;8.646;2024-01-30T01:11:37;0.30;99.90
20845;DHT22;10583;49.084;8.646;2024-01-30T01:14:05;0.20;99.90
20845;DHT22;10583;49.084;8.646;2024-01-30T01:16:33;0.20;99.90
20845;DHT22;10583;49.084;8.646;2024-01-30T01:18:59;0.20;99.90
20845;DHT22;10583;49.084;8.646;2024-01-30T01:21:26;0.20;99.90
20845;DHT22;10583;49.084;8.646;2024-01-30T01:23:53;0.10;99.90
20845;DHT22;10583;49.084;8.646;2024-01-30T01:26:20;0.10;99.90
20845;DHT22;10583;49.084;8.646;2024-01-30T01:28:46;0.00;99.90
20845;DHT22;10583;49.084;8.646;2024-01-30T01:31:15;0.00;99.90
20845;DHT22;10583;49.084;8.646;2024-01-30T01:33:43;-0.10;99.90
20845;DHT22;10583;49.084;8.646;2024-01-30T01:36:09;-0.10;99.90
20845;DHT22;10583;49.084;8.646;2024-01-30T01:38:36;-0.10;99.90
20845;DHT22;10583;49.084;8.646;2024-01-30T01:41:03;-0.20;99.90
20845;DHT22;10583;49.084;8.646;2024-01-30T01:43:29;-0.20;99.90
20845;DHT22;10583;49.084;8.646;2024-01-30T01:45:56;-0.20;99.90
20845;DHT22;10583;49.084;8.646;2024-01-30T01:48:24;-0.30;99.90
20845;DHT22;10583;49.084;8.646;2024-01-30T01:50:52;-0.20;99.90
20845;DHT22;10583;49.084;8.646;2024-01-30T01:53:19;-0.30;99.90
20845;DHT22;10583;49.084;8.646;2024-01-30T01:55:46;-0.30;99.90
20845;DHT22;10583;49.084;8.646;2024-01-30T01:58:14;-0.20;99.90
20845;DHT22;10583;49.084;8.646;2024-01-30T02:00:41;-0.20;99.90
20845;DHT22;10583;49.084;8.646;2024-01-30T02:03:10;-0.20;99.90
20845;DHT22;10583;49.084;8.646;2024-01-30T02:05:39;-0.20;99.90
20845;DHT22;10583;49.084;8.646;2024-01-30T02:08:08;-0.20;99.90
20845;DHT22;10583;49.084;8.646;2024-01-30T02:10:34;-0.20;99.90
20845;DHT22;10583;49.084;8.646;2024-01-30T02:13:01;-0.20;99.90
20845;DHT22;10583;49.084;8.646;2024-01-30T02:15:28;-0.20;99.90
20845;DHT22;10583;49.084;8.646;2024-01-30T02:17:55;-0.30;99.90
20845;DHT22;10583;49.084;8.646;2024-01-30T02:20:23;-0.20;99.90
20845;DHT22;10583;49.084;8.646;2024-01-30T02:22:52;-0.20;99.90
20845;DHT22;10583;49.084;8.646;2024-01-30T02:25:20;-0.20;99.90
20845;DHT22;10583;49.084;8.646;2024-01-30T02:27:56;-0.10;99.90
20845;DHT22;10583;49.084;8.646;2024-01-30T02:30:22;-0.20;99.90
20845;DHT22;10583;49.084;8.646;2024-01-30T02:32:49;-0.20;99.90
20845;DHT22;10583;49.084;8.646;2024-01-30T02:35:16;-0.20;99.90
20845;DHT22;10583;49.084;8.646;2024-01-30T02:37:42;-0.20;99.90
20845;DHT22;10583;49.084;8.646;2024-01-30T02:40:10;-0.20;99.90
20845;DHT22;10583;49.084;8.646;2024-01-30T02:42:37;-0.20;99.90
20845;DHT22;10583;49.084;8.646;2024-01-30T02:45:04;-0.20;99.90
20845;DHT22;10583;49.084;8.646;2024-01-30T02:47:31;-0.20;99.90
20845;DHT22;10583;49.084;8.646;2024-01-30T02:49:58;-0.30;99.90
20845;DHT22;10583;49.084;8.646;2024-01-30T02:52:24;-0.40;99.90
20845;DHT22;10583;49.084;8.646;2024-01-30T02:54:51;-0.40;99.90
20845;DHT22;10583;49.084;8.646;2024-01-30T02:57:19;-0.40;99.90
20845;DHT22;10583;49.084;8.646;2024-01-30T02:59:46;-0.40;99.90
20845;DHT22;10583;49.084;8.646;2024-01-30T03:02:12;-0.40;99.90
20845;DHT22;10583;49.084;8.646;2024-01-30T03:04:41;-0.40;99.90
20845;DHT22;10583;49.084;8.646;2024-01-30T03:07:07;-0.40;99.90
20845;DHT22;10583;49.084;8.646;2024-01-30T03:09:34;-0.40;99.90
20845;DHT22;10583;49.084;8.646;2024-01-30T03:12:01;-0.40;99.90
20845;DHT22;10583;49.084;8.646;2024-01-30T03:14:30;-0.40;99.90
20845;DHT22;10583;49.084;8.646;2024-01-30T03:16:57;-0.30;99.90
20845;DHT22;10583;49.084;8.646;2024-01-30T03:19:23;-0.30;99.90
20845;DHT22;10583;49.084;8.646;2024-01-30T03:21:50;-0.30;99.90
20845;DHT22;10583;49.084;8.646;2024-01-30T03:24:17;-0.30;99.90
20845;DHT22;10583;49.084;8.646;2024-01-30T03:26:43;-0.30;99.90
20845;DHT22;10583;49.084;8.646;2024-01-30T03:29:10;-0.20;99.90
20845;DHT22;10583;49.084;8.646;2024-01-30T03:31:38;-0.30;99.90
20845;DHT22;10583;49.084;8.646;2024-01-30T03:34:05;-0.30;99.90
20845;DHT22;10583;49.084;8.646;2024-01-30T03:36:32;-0.30;99.90
20845;DHT22;10583;49.084;8.646;2024-01-30T03:38:59;-0.30;99.90
20845;DHT22;10583;49.084;8.646;2024-01-30T03:41:26;-0.30;99.90
20845;DHT22;10583;49.084;8.646;2024-01-30T03:43:53;-0.30;99.90
20845;DHT22;10583;49.084;8.646;2024-01-30T03:46:19;-0.40;99.90
20845;DHT22;10583;49.084;8.646;2024-01-30T03:48:47;-0.40;99.90
20845;DHT22;10583;49.084;8.646;2024-01-30T03:51:14;-0.40;99.90
20845;DHT22;10583;49.084;8.646;2024-01-30T03:53:41;-0.50;99.90
20845;DHT22;10583;49.084;8.646;2024-01-30T03:56:08;-0.50;99.90
20845;DHT22;10583;49.084;8.646;2024-01-30T03:58:35;-0.50;99.90
20845;DHT22;10583;49.084;8.646;2024-01-30T04:01:01;-0.60;99.90
20845;DHT22;10583;49.084;8.646;2024-01-30T04:03:28;-0.60;99.90
20845;DHT22;10583;49.084;8.646;2024-01-30T04:05:56;-0.60;99.90
20845;DHT22;10583;49.084;8.646;2024-01-30T04:08:23;-0.70;99.90
20845;DHT22;10583;49.084;8.646;2024-01-30T04:10:49;-0.70;99.90
20845;DHT22;10583;49.084;8.646;2024-01-30T04:13:16;-0.70;99.90
20845;DHT22;10583;49.084;8.646;2024-01-30T04:15:43;-0.60;99.90
20845;DHT22;10583;49.084;8.646;2024-01-30T04:18:11;-0.60;99.90
20845;DHT22;10583;49.084;8.646;2024-01-30T04:20:37;-0.60;99.90
20845;DHT22;10583;49.084;8.646;2024-01-30T04:23:06;-0.60;99.90
20845;DHT22;10583;49.084;8.646;2024-01-30T04:25:32;-0.60;99.90
20845;DHT22;10583;49.084;8.646;2024-01-30T04:27:59;-0.60;99.90
20845;DHT22;10583;49.084;8.646;2024-01-30T04:30:25;-0.70;99.90
20845;DHT22;10583;49.084;8.646;2024-01-30T04:32:52;-0.70;99.90
20845;DHT22;10583;49.084;8.646;2024-01-30T04:35:19;-0.70;99.90
20845;DHT22;10583;49.084;8.646;2024-01-30T04:37:49;-0.60;99.90
20845;DHT22;10583;49.084;8.646;2024-01-30T04:40:17;-0.50;99.90
20845;DHT22;10583;49.084;8.646;2024-01-30T04:42:44;-0.50;99.90
20845;DHT22;10583;49.084;8.646;2024-01-30T04:45:12;-0.50;99.90
20845;DHT22;10583;49.084;8.646;2024-01-30T04:47:39;-0.50;99.90
20845;DHT22;10583;49.084;8.646;2024-01-30T04:50:07;-0.40;99.90
20845;DHT22;10583;49.084;8.646;2024-01-30T04:52:34;-0.40;99.90
20845;DHT22;10583;49.084;8.646;2024-01-30T04:55:01;-0.40;99.90
20845;DHT22;10583;49.084;8.646;2024-01-30T04:57:29;-0.60;99.90
20845;DHT22;10583;49.084;8.646;2024-01-30T04:59:56;-0.60;99.90
20845;DHT22;10583;49.084;8.646;2024-01-30T05:02:23;-0.60;99.90
20845;DHT22;10583;49.084;8.646;2024-01-30T05:04:49;-0.70;99.90
20845;DHT22;10583;49.084;8.646;2024-01-30T05:07:16;-0.70;99.90
20845;DHT22;10583;49.084;8.646;2024-01-30T05:09:43;-0.60;99.90
20845;DHT22;10583;49.084;8.646;2024-01-30T05:12:10;-0.70;99.90
20845;DHT22;10583;49.084;8.646;2024-01-30T05:14:38;-0.70;99.90
20845;DHT22;10583;49.084;8.646;2024-01-30T05:17:05;-0.80;99.90
20845;DHT22;10583;49.084;8.646;2024-01-30T05:19:32;-0.80;99.90
20845;DHT22;10583;49.084;8.646;2024-01-30T05:21:58;-0.80;99.90
20845;DHT22;10583;49.084;8.646;2024-01-30T05:24:25;-0.80;99.90
20845;DHT22;10583;49.084;8.646;2024-01-30T05:26:51;-0.90;99.90
20845;DHT22;10583;49.084;8.646;2024-01-30T05:29:18;-0.80;99.90
20845;DHT22;10583;49.084;8.646;2024-01-30T05:31:46;-0.80;99.90
20845;DHT22;10583;49.084;8.646;2024-01-30T05:34:13;-0.80;99.90
20845;DHT22;10583;49.084;8.646;2024-01-30T05:36:39;-0.70;99.90
20845;DHT22;10583;49.084;8.646;2024-01-30T05:39:06;-0.70;99.90
20845;DHT22;10583;49.084;8.646;2024-01-30T05:41:33;-0.60;99.90
20845;DHT22;10583;49.084;8.646;2024-01-30T05:44:00;-0.50;99.90
20845;DHT22;10583;49.084;8.646;2024-01-30T05:46:26;-0.60;99.90
20845;DHT22;10583;49.084;8.646;2024-01-30T05:48:54;-0.60;99.90
20845;DHT22;10583;49.084;8.646;2024-01-30T05:51:21;-0.50;99.90
20845;DHT22;10583;49.084;8.646;2024-01-30T05:53:48;-0.50;99.90
20845;DHT22;10583;49.084;8.646;2024-01-30T05:56:14;-0.60;99.90
20845;DHT22;10583;49.084;8.646;2024-01-30T05:58:41;-0.60;99.90
20845;DHT22;10583;49.084;8.646;2024-01-30T06:01:08;-0.60;99.90
20845;DHT22;10583;49.084;8.646;2024-01-30T06:03:35;-0.60;99.90
20845;DHT22;10583;49.084;8.646;2024-01-30T06:06:04;-0.50;99.90
20845;DHT22;10583;49.084;8.646;2024-01-30T06:08:30;-0.50;99.90
20845;DHT22;10583;49.084;8.646;2024-01-30T06:10:57;-0.50;99.90
20845;DHT22;10583;49.084;8.646;2024-01-30T06:13:24;-0.50;99.90
20845;DHT22;10583;49.084;8.646;2024-01-30T06:15:50;-0.50;99.90
20845;DHT22;10583;49.084;8.646;2024-01-30T06:18:17;-0.50;99.90
20845;DHT22;10583;49.084;8.646;2024-01-30T06:20:44;-0.60;99.90
20845;DHT22;10583;49.084;8.646;2024-01-30T06:23:12;-0.50;99.90
20845;DHT22;10583;49.084;8.646;2024-01-30T06:25:40;-0.50;99.90
20845;DHT22;10583;49.084;8.646;2024-01-30T06:28:06;-0.50;99.90
20845;DHT22;10583;49.084;8.646;2024-01-30T06:30:33;-0.50;99.90
20845;DHT22;10583;49.084;8.646;2024-01-30T06:33:00;-0.50;99.90
20845;DHT22;10583;49.084;8.646;2024-01-30T06:35:26;-0.60;99.90
20845;DHT22;10583;49.084;8.646;2024-01-30T06:37:54;-0.70;99.90
20845;DHT22;10583;49.084;8.646;2024-01-30T06:40:22;-0.70;99.90
20845;DHT22;10583;49.084;8.646;2024-01-30T06:42:48;-0.80;99.90
20845;DHT22;10583;49.084;8.646;2024-01-30T06:45:15;-0.80;99.90
20845;DHT22;10583;49.084;8.646;2024-01-30T06:47:42;-0.80;99.90
20845;DHT22;10583;49.084;8.646;2024-01-30T06:50:09;-0.90;99.90
20845;DHT22;10583;49.084;8.646;2024-01-30T06:52:35;-0.90;99.90
20845;DHT22;10583;49.084;8.646;2024-01-30T06:55:02;-0.90;99.90
20845;DHT22;10583;49.084;8.646;2024-01-30T06:57:30;-0.80;99.90
20845;DHT22;10583;49.084;8.646;2024-01-30T06:59:57;-0.80;99.90
20845;DHT22;10583;49.084;8.646;2024-01-30T07:02:24;-0.90;99.90
20845;DHT22;10583;49.084;8.646;2024-01-30T07:04:50;-0.80;99.90
20845;DHT22;10583;49.084;8.646;2024-01-30T07:07:17;-0.80;99.90
20845;DHT22;10583;49.084;8.646;2024-01-30T07:09:44;-0.70;99.90
20845;DHT22;10583;49.084;8.646;2024-01-30T07:12:10;-0.70;99.90
20845;DHT22;10583;49.084;8.646;2024-01-30T07:14:38;-0.60;99.90
20845;DHT22;10583;49.084;8.646;2024-01-30T07:17:05;-0.60;99.90
20845;DHT22;10583;49.084;8.646;2024-01-30T07:19:32;-0.60;99.90
20845;DHT22;10583;49.084;8.646;2024-01-30T07:22:00;-0.60;99.90
20845;DHT22;10583;49.084;8.646;2024-01-30T07:24:26;-0.60;99.90
20845;DHT22;10583;49.084;8.646;2024-01-30T07:26:53;-0.60;99.90
20845;DHT22;10583;49.084;8.646;2024-01-30T07:29:20;-0.50;99.90
20845;DHT22;10583;49.084;8.646;2024-01-30T07:31:49;-0.50;99.90
20845;DHT22;10583;49.084;8.646;2024-01-30T07:34:15;-0.50;99.90
20845;DHT22;10583;49.084;8.646;2024-01-30T07:36:42;-0.50;99.90
20845;DHT22;10583;49.084;8.646;2024-01-30T07:39:09;-0.50;99.90
20845;DHT22;10583;49.084;8.646;2024-01-30T07:41:36;-0.40;99.90
20845;DHT22;10583;49.084;8.646;2024-01-30T07:44:03;-0.50;99.90
20845;DHT22;10583;49.084;8.646;2024-01-30T07:46:30;-0.50;99.90
20845;DHT22;10583;49.084;8.646;2024-01-30T07:48:58;-0.50;99.90
20845;DHT22;10583;49.084;8.646;2024-01-30T07:51:25;-0.40;99.90
20845;DHT22;10583;49.084;8.646;2024-01-30T07:53:53;-0.30;99.90
20845;DHT22;10583;49.084;8.646;2024-01-30T07:56:20;-0.20;99.90
20845;DHT22;10583;49.084;8.646;2024-01-30T07:58:47;-0.10;99.90
20845;DHT22;10583;49.084;8.646;2024-01-30T08:01:14;0.00;99.90
20845;DHT22;10583;49.084;8.646;2024-01-30T08:03:41;0.00;99.90
20845;DHT22;10583;49.084;8.646;2024-01-30T08:06:09;0.10;99.90
20845;DHT22;10583;49.084;8.646;2024-01-30T08:08:36;0.10;99.90
20845;DHT22;10583;49.084;8.646;2024-01-30T08:11:03;0.20;99.90
20845;DHT22;10583;49.084;8.646;2024-01-30T08:13:30;0.20;99.90
20845;DHT22;10583;49.084;8.646;2024-01-30T08:15:56;0.30;99.90
20845;DHT22;10583;49.084;8.646;2024-01-30T08:18:23;0.30;99.90
20845;DHT22;10583;49.084;8.646;2024-01-30T08:20:50;0.50;99.90
20845;DHT22;10583;49.084;8.646;2024-01-30T08:23:18;0.60;99.90
20845;DHT22;10583;49.084;8.646;2024-01-30T08:25:44;0.60;99.90
20845;DHT22;10583;49.084;8.646;2024-01-30T08:28:11;0.70;99.90
20845;DHT22;10583;49.084;8.646;2024-01-30T08:30:37;0.80;99.90
20845;DHT22;10583;49.084;8.646;2024-01-30T08:33:05;0.90;99.90
20845;DHT22;10583;49.084;8.646;2024-01-30T08:35:32;1.10;99.90
20845;DHT22;10583;49.084;8.646;2024-01-30T08:37:59;1.30;99.90
20845;DHT22;10583;49.084;8.646;2024-01-30T08:40:27;1.50;99.90
20845;DHT22;10583;49.084;8.646;2024-01-30T08:42:54;1.60;99.90
20845;DHT22;10583;49.084;8.646;2024-01-30T08:45:20;1.90;99.90
20845;DHT22;10583;49.084;8.646;2024-01-30T08:47:47;2.00;99.90
20845;DHT22;10583;49.084;8.646;2024-01-30T08:50:14;2.20;99.90
20845;DHT22;10583;49.084;8.646;2024-01-30T08:52:41;2.30;99.90
20845;DHT22;10583;49.084;8.646;2024-01-30T08:55:08;2.40;99.90
20845;DHT22;10583;49.084;8.646;2024-01-30T08:57:36;2.50;99.90
20845;DHT22;10583;49.084;8.646;2024-01-30T09:00:03;2.50;99.90
20845;DHT22;10583;49.084;8.646;2024-01-30T09:02:32;2.60;99.90
20845;DHT22;10583;49.084;8.646;2024-01-30T09:04:58;2.60;99.90
20845;DHT22;10583;49.084;8.646;2024-01-30T09:07:25;2.50;99.90
20845;DHT22;10583;49.084;8.646;2024-01-30T09:09:51;2.60;99.90
20845;DHT22;10583;49.084;8.646;2024-01-30T09:12:18;2.60;99.90
20845;DHT22;10583;49.084;8.646;2024-01-30T09:14:46;2.60;99.90
20845;DHT22;10583;49.084;8.646;2024-01-30T09:17:13;2.60;99.90
20845;DHT22;10583;49.084;8.646;2024-01-30T09:19:40;2.60;99.90
20845;DHT22;10583;49.084;8.646;2024-01-30T09:22:07;2.60;99.90
20845;DHT22;10583;49.084;8.646;2024-01-30T09:24:33;2.70;99.90
20845;DHT22;10583;49.084;8.646;2024-01-30T09:27:00;2.70;99.90
20845;DHT22;10583;49.084;8.646;2024-01-30T09:29:27;2.70;99.90
20845;DHT22;10583;49.084;8.646;2024-01-30T09:31:55;2.80;99.90
20845;DHT22;10583;49.084;8.646;2024-01-30T09:34:22;2.80;99.90
20845;DHT22;10583;49.084;8.646;2024-01-30T09:36:48;2.90;99.90
20845;DHT22;10583;49.084;8.646;2024-01-30T09:39:15;3.00;99.90
20845;DHT22;10583;49.084;8.646;2024-01-30T09:41:48;3.10;99.90
20845;DHT22;10583;49.084;8.646;2024-01-30T09:44:16;3.10;99.90
20845;DHT22;10583;49.084;8.646;2024-01-30T09:46:43;3.10;99.90
20845;DHT22;10583;49.084;8.646;2024-01-30T09:49:11;3.20;99.90
20845;DHT22;10583;49.084;8.646;2024-01-30T09:51:38;3.30;99.90
20845;DHT22;10583;49.084;8.646;2024-01-30T09:54:07;3.40;99.90
20845;DHT22;10583;49.084;8.646;2024-01-30T09:56:34;3.50;99.90
20845;DHT22;10583;49.084;8.646;2024-01-30T09:59:01;3.50;99.90
20845;DHT22;10583;49.084;8.646;2024-01-30T10:01:28;3.60;99.90
20845;DHT22;10583;49.084;8.646;2024-01-30T10:03:55;3.60;99.90
20845;DHT22;10583;49.084;8.646;2024-01-30T10:06:24;3.60;99.90
20845;DHT22;10583;49.084;8.646;2024-01-30T10:08:51;3.60;99.90
20845;DHT22;10583;49.084;8.646;2024-01-30T10:11:18;3.80;99.90
20845;DHT22;10583;49.084;8.646;2024-01-30T10:13:44;3.80;99.90
20845;DHT22;10583;49.084;8.646;2024-01-30T10:16:13;3.80;99.90
20845;DHT22;10583;49.084;8.646;2024-01-30T10:18:41;3.80;99.90
20845;DHT22;10583;49.084;8.646;2024-01-30T10:21:08;3.90;99.90
20845;DHT22;10583;49.084;8.646;2024-01-30T10:23:36;3.90;99.90
20845;DHT22;10583;49.084;8.646;2024-01-30T10:26:04;4.00;99.90
20845;DHT22;10583;49.084;8.646;2024-01-30T10:28:30;4.10;99.90
20845;DHT22;10583;49.084;8.646;2024-01-30T10:30:57;4.10;99.90
20845;DHT22;10583;49.084;8.646;2024-01-30T10:33:25;4.10;99.90
20845;DHT22;10583;49.084;8.646;2024-01-30T10:35:54;4.10;99.90
20845;DHT22;10583;49.084;8.646;2024-01-30T10:38:24;4.30;99.90
20845;DHT22;10583;49.084;8.646;2024-01-30T10:40:56;4.40;99.90
20845;DHT22;10583;49.084;8.646;2024-01-30T10:43:24;4.60;99.90
20845;DHT22;10583;49.084;8.646;2024-01-30T10:45:56;4.70;99.90
20845;DHT22;10583;49.084;8.646;2024-01-30T10:48:27;4.80;99.90
20845;DHT22;10583;49.084;8.646;2024-01-30T10:50:57;4.90;99.90
20845;DHT22;10583;49.084;8.646;2024-01-30T10:53:26;4.90;99.90
20845;DHT22;10583;49.084;8.646;2024-01-30T10:55:55;5.00;99.90
20845;DHT22;10583;49.084;8.646;2024-01-30T10:58:24;5.10;99.90
20845;DHT22;10583;49.084;8.646;2024-01-30T11:00:52;5.20;99.90
20845;DHT22;10583;49.084;8.646;2024-01-30T11:03:19;5.30;99.90
20845;DHT22;10583;49.084;8.646;2024-01-30T11:05:49;5.40;99.90
20845;DHT22;10583;49.084;8.646;2024-01-30T11:08:23;5.50;99.90
20845;DHT22;10583;49.084;8.646;2024-01-30T11:10:56;5.60;99.90
20845;DHT22;10583;49.084;8.646;2024-01-30T11:13:27;5.70;99.90
20845;DHT22;10583;49.084;8.646;2024-01-30T11:15:54;5.90;99.90
20845;DHT22;10583;49.084;8.646;2024-01-30T11:18:24;6.10;99.90
20845;DHT22;10583;49.084;8.646;2024-01-30T11:20:51;6.20;99.90
20845;DHT22;10583;49.084;8.646;2024-01-30T11:23:18;6.40;99.90
20845;DHT22;10583;49.084;8.646;2024-01-30T11:25:48;6.50;99.90
20845;DHT22;10583;49.084;8.646;2024-01-30T11:28:16;6.60;99.90
20845;DHT22;10583;49.084;8.646;2024-01-30T11:30:44;6.70;99.90
20845;DHT22;10583;49.084;8.646;2024-01-30T11:33:14;6.70;99.90
20845;DHT22;10583;49.084;8.646;2024-01-30T11:35:42;6.80;99.90
20845;DHT22;10583;49.084;8.646;2024-01-30T11:38:10;6.80;99.90
20845;DHT22;10583;49.084;8.646;2024-01-30T11:40:37;7.00;99.90
20845;DHT22;10583;49.084;8.646;2024-01-30T11:43:06;7.20;99.90
20845;DHT22;10583;49.084;8.646;2024-01-30T11:45:35;7.50;99.90
20845;DHT22;10583;49.084;8.646;2024-01-30T11:48:03;7.50;99.90
20845;DHT22;10583;49.084;8.646;2024-01-30T11:50:30;7.60;99.90
20845;DHT22;10583;49.084;8.646;2024-01-30T11:52:56;8.00;99.90
20845;DHT22;10583;49.084;8.646;2024-01-30T11:55:23;8.20;99.90
20845;DHT22;10583;49.084;8.646;2024-01-30T11:57:50;8.60;99.90
20845;DHT22;10583;49.084;8.646;2024-01-30T12:00:19;8.90;99.90
20845;DHT22;10583;49.084;8.646;2024-01-30T12:02:50;8.90;99.90
20845;DHT22;10583;49.084;8.646;2024-01-30T12:05:21;8.80;99.90
20845;DHT22;10583;49.084;8.646;2024-01-30T12:07:48;8.60;99.90
20845;DHT22;10583;49.084;8.646;2024-01-30T12:10:15;8.50;99.90
20845;DHT22;10583;49.084;8.646;2024-01-30T12:12:45;8.30;99.90
20845;DHT22;10583;49.084;8.646;2024-01-30T12:15:12;8.30;99.90
20845;DHT22;10583;49.084;8.646;2024-01-30T12:17:40;8.20;99.90
20845;DHT22;10583;49.084;8.646;2024-01-30T12:20:10;8.30;99.90
20845;DHT22;10583;49.084;8.646;2024-01-30T12:22:38;8.40;99.90
20845;DHT22;10583;49.084;8.646;2024-01-30T12:25:05;8.60;99.90
20845;DHT22;10583;49.084;8.646;2024-01-30T12:27:32;8.80;99.90
20845;DHT22;10583;49.084;8.646;2024-01-30T12:29:58;8.90;99.90
20845;DHT22;10583;49.084;8.646;2024-01-30T12:32:25;9.00;99.90
20845;DHT22;10583;49.084;8.646;2024-01-30T12:34:55;9.00;99.90
20845;DHT22;10583;49.084;8.646;2024-01-30T12:37:24;9.10;99.90
20845;DHT22;10583;49.084;8.646;2024-01-30T12:39:52;9.20;99.90
20845;DHT22;10583;49.084;8.646;2024-01-30T12:42:20;9.30;99.90
20845;DHT22;10583;49.084;8.646;2024-01-30T12:44:47;9.50;99.90
20845;DHT22;10583;49.084;8.646;2024-01-30T12:47:14;9.60;99.90
20845;DHT22;10583;49.084;8.646;2024-01-30T12:49:42;9.70;99.90
20845;DHT22;10583;49.084;8.646;2024-01-30T12:52:09;9.90;99.90
20845;DHT22;10583;49.084;8.646;2024-01-30T12:54:37;10.00;99.90
20845;DHT22;10583;49.084;8.646;2024-01-30T12:57:04;10.00;99.90
20845;DHT22;10583;49.084;8.646;2024-01-30T12:59:31;10.10;99.90
20845;DHT22;10583;49.084;8.646;2024-01-30T13:01:59;10.40;99.90
20845;DHT22;10583;49.084;8.646;2024-01-30T13:04:27;10.40;99.90
20845;DHT22;10583;49.084;8.646;2024-01-30T13:06:53;10.50;99.90
20845;DHT22;10583;49.084;8.646;2024-01-30T13:09:20;10.50;99.90
20845;DHT22;10583;49.084;8.646;2024-01-30T13:11:49;10.40;99.90
20845;DHT22;10583;49.084;8.646;2024-01-30T13:14:16;10.30;99.90
20845;DHT22;10583;49.084;8.646;2024-01-30T13:16:43;10.30;99.90
20845;DHT22;10583;49.084;8.646;2024-01-30T13:19:09;10.30;99.90
20845;DHT22;10583;49.084;8.646;2024-01-30T13:21:36;10.50;99.90
20845;DHT22;10583;49.084;8.646;2024-01-30T13:24:04;10.60;99.90
20845;DHT22;10583;49.084;8.646;2024-01-30T13:26:32;10.80;99.90
20845;DHT22;10583;49.084;8.646;2024-01-30T13:29:00;10.90;99.90
20845;DHT22;10583;49.084;8.646;2024-01-30T13:31:26;10.90;99.90
20845;DHT22;10583;49.084;8.646;2024-01-30T13:33:53;10.90;99.90
20845;DHT22;10583;49.084;8.646;2024-01-30T13:36:21;11.00;99.90
20845;DHT22;10583;49.084;8.646;2024-01-30T13:38:47;10.90;99.90
20845;DHT22;10583;49.084;8.646;2024-01-30T13:41:14;10.90;99.90
20845;DHT22;10583;49.084;8.646;2024-01-30T13:43:42;11.00;99.90
20845;DHT22;10583;49.084;8.646;2024-01-30T13:46:11;11.00;99.90
20845;DHT22;10583;49.084;8.646;2024-01-30T13:48:37;11.00;99.90
20845;DHT22;10583;49.084;8.646;2024-01-30T13:51:04;11.00;99.90
20845;DHT22;10583;49.084;8.646;2024-01-30T13:53:31;11.00;99.90
20845;DHT22;10583;49.084;8.646;2024-01-30T13:55:58;11.00;99.90
20845;DHT22;10583;49.084;8.646;2024-01-30T13:58:25;11.00;99.90
20845;DHT22;10583;49.084;8.646;2024-01-30T14:00:51;11.00;99.90
20845;DHT22;10583;49.084;8.646;2024-01-30T14:03:20;11.00;99.90
20845;DHT22;10583;49.084;8.646;2024-01-30T14:05:47;10.90;99.90
20845;DHT22;10583;49.084;8.646;2024-01-30T14:08:13;10.90;99.90
20845;DHT22;10583;49.084;8.646;2024-01-30T14:10:40;10.80;99.90
20845;DHT22;10583;49.084;8.646;2024-01-30T14:13:07;10.80;99.90
20845;DHT22;10583;49.084;8.646;2024-01-30T14:15:34;10.80;99.90
20845;DHT22;10583;49.084;8.646;2024-01-30T14:18:00;10.80;99.90
20845;DHT22;10583;49.084;8.646;2024-01-30T14:20:28;10.80;99.90
20845;DHT22;10583;49.084;8.646;2024-01-30T14:22:55;10.90;99.90
20845;DHT22;10583;49.084;8.646;2024-01-30T14:25:21;10.80;99.90
20845;DHT22;10583;49.084;8.646;2024-01-30T14:27:48;10.80;99.90
20845;DHT22;10583;49.084;8.646;2024-01-30T14:30:15;10.80;99.90
20845;DHT22;10583;49.084;8.646;2024-01-30T14:32:42;10.80;99.90
20845;DHT22;10583;49.084;8.646;2024-01-30T14:35:10;10.70;99.90
20845;DHT22;10583;49.084;8.646;2024-01-30T14:37:38;10.70;99.90
20845;DHT22;10583;49.084;8.646;2024-01-30T14:40:06;10.70;99.90
20845;DHT22;10583;49.084;8.646;2024-01-30T14:42:33;10.60;99.90
20845;DHT22;10583;49.084;8.646;2024-01-30T14:45:01;10.60;99.90
20845;DHT22;10583;49.084;8.646;2024-01-30T14:47:28;10.50;99.90
20845;DHT22;10583;49.084;8.646;2024-01-30T14:49:54;10.40;99.90
20845;DHT22;10583;49.084;8.646;2024-01-30T14:52:21;10.40;99.90
20845;DHT22;10583;49.084;8.646;2024-01-30T14:54:49;10.30;99.90
20845;DHT22;10583;49.084;8.646;2024-01-30T14:57:15;10.30;99.90
20845;DHT22;10583;49.084;8.646;2024-01-30T14:59:43;10.20;99.90
20845;DHT22;10583;49.084;8.646;2024-01-30T15:02:09;10.20;99.90
20845;DHT22;10583;49.084;8.646;2024-01-30T15:04:36;10.10;99.90
20845;DHT22;10583;49.084;8.646;2024-01-30T15:07:03;10.00;99.90
20845;DHT22;10583;49.084;8.646;2024-01-30T15:09:30;10.00;99.90
20845;DHT22;10583;49.084;8.646;2024-01-30T15:11:58;10.00;99.90
20845;DHT22;10583;49.084;8.646;2024-01-30T15:14:25;10.00;99.90
20845;DHT22;10583;49.084;8.646;2024-01-30T15:16:51;10.00;99.90
20845;DHT22;10583;49.084;8.646;2024-01-30T15:19:18;10.10;99.90
20845;DHT22;10583;49.084;8.646;2024-01-30T15:21:45;10.10;99.90
20845;DHT22;10583;49.084;8.646;2024-01-30T15:24:11;10.10;99.90
20845;DHT22;10583;49.084;8.646;2024-01-30T15:26:40;10.00;99.90
20845;DHT22;10583;49.084;8.646;2024-01-30T15:29:08;10.00;99.90
20845;DHT22;10583;49.084;8.646;2024-01-30T15:31:35;10.00;99.90
20845;DHT22;10583;49.084;8.646;2024-01-30T15:34:01;9.90;99.90
20845;DHT22;10583;49.084;8.646;2024-01-30T15:36:29;9.90;99.90